Collingswood, New Jersey
Current Conditions -  °F | °C
As of 3:54 AM on Sunday 26 Oct 2014 (Local Time) from KPHL Reporting Station
Scattered Clouds Scattered Clouds  
Wind Chill: 57°   Ceiling: Unl
Heat Index: 57°   Visibility: 10mi
Dew Point: 49°   Wind: 9mph
Humidity: 74%   Direction: 260°W
Pressure: 29.61"   Gusts: NA
Location:  39.92°N, 75.07°W
Report Text: KPHL 260754Z 26008KT 10SM FEW080 SCT100 14/09 A2961 RMK AO2 SLP027 T01390094
Loading
Personal Weather Stations






























Interactive Weather Map
Tropical Storm Tracking
New forecast layout! Learn more

10-Day Weather Forecast

Advertisements
Track Severe Weather on mobile